sensor_id;sensor_type;location;lat;lon;timestamp;P1;durP1;ratioP1;P2;durP2;ratioP2
11187;SDS011;5650;52.700;7.306;2023-03-16T00:02:07;9.23;;;2.85;;
11187;SDS011;5650;52.700;7.306;2023-03-16T00:04:38;4.32;;;2.53;;
11187;SDS011;5650;52.700;7.306;2023-03-16T00:07:07;10.35;;;2.88;;
11187;SDS011;5650;52.700;7.306;2023-03-16T00:09:37;7.25;;;3.03;;
11187;SDS011;5650;52.700;7.306;2023-03-16T00:12:09;11.93;;;3.55;;
11187;SDS011;5650;52.700;7.306;2023-03-16T00:14:51;8.32;;;2.67;;
11187;SDS011;5650;52.700;7.306;2023-03-16T00:17:19;10.18;;;2.70;;
11187;SDS011;5650;52.700;7.306;2023-03-16T00:19:51;8.38;;;2.80;;
11187;SDS011;5650;52.700;7.306;2023-03-16T00:22:27;6.43;;;2.72;;
11187;SDS011;5650;52.700;7.306;2023-03-16T00:25:04;8.40;;;2.72;;
11187;SDS011;5650;52.700;7.306;2023-03-16T00:27:32;6.00;;;2.83;;
11187;SDS011;5650;52.700;7.306;2023-03-16T00:30:03;7.15;;;2.85;;
11187;SDS011;5650;52.700;7.306;2023-03-16T00:32:31;6.55;;;2.80;;
11187;SDS011;5650;52.700;7.306;2023-03-16T00:34:59;10.73;;;3.45;;
11187;SDS011;5650;52.700;7.306;2023-03-16T00:37:27;8.20;;;3.15;;
11187;SDS011;5650;52.700;7.306;2023-03-16T00:39:57;11.73;;;3.70;;
11187;SDS011;5650;52.700;7.306;2023-03-16T00:42:25;5.30;;;3.00;;
11187;SDS011;5650;52.700;7.306;2023-03-16T00:44:58;7.75;;;3.30;;
11187;SDS011;5650;52.700;7.306;2023-03-16T00:47:27;8.10;;;2.80;;
11187;SDS011;5650;52.700;7.306;2023-03-16T00:50:01;8.52;;;3.00;;
11187;SDS011;5650;52.700;7.306;2023-03-16T00:52:51;5.43;;;2.95;;
11187;SDS011;5650;52.700;7.306;2023-03-16T00:55:20;7.13;;;3.45;;
11187;SDS011;5650;52.700;7.306;2023-03-16T00:57:48;5.97;;;2.75;;
11187;SDS011;5650;52.700;7.306;2023-03-16T01:00:24;13.32;;;3.10;;
11187;SDS011;5650;52.700;7.306;2023-03-16T01:02:52;9.95;;;2.92;;
11187;SDS011;5650;52.700;7.306;2023-03-16T01:05:19;8.75;;;3.05;;
11187;SDS011;5650;52.700;7.306;2023-03-16T01:07:52;6.90;;;3.17;;
11187;SDS011;5650;52.700;7.306;2023-03-16T01:10:23;6.65;;;3.05;;
11187;SDS011;5650;52.700;7.306;2023-03-16T01:12:56;7.05;;;3.22;;
11187;SDS011;5650;52.700;7.306;2023-03-16T01:15:23;10.10;;;3.30;;
11187;SDS011;5650;52.700;7.306;2023-03-16T01:17:50;6.30;;;2.80;;
11187;SDS011;5650;52.700;7.306;2023-03-16T01:20:27;9.45;;;3.25;;
11187;SDS011;5650;52.700;7.306;2023-03-16T01:22:54;6.15;;;2.85;;
11187;SDS011;5650;52.700;7.306;2023-03-16T01:25:23;7.07;;;3.22;;
11187;SDS011;5650;52.700;7.306;2023-03-16T01:27:53;9.77;;;3.47;;
11187;SDS011;5650;52.700;7.306;2023-03-16T01:30:23;7.07;;;3.00;;
11187;SDS011;5650;52.700;7.306;2023-03-16T01:32:57;13.55;;;3.50;;
11187;SDS011;5650;52.700;7.306;2023-03-16T01:35:24;6.38;;;2.70;;
11187;SDS011;5650;52.700;7.306;2023-03-16T01:37:51;11.00;;;3.70;;
11187;SDS011;5650;52.700;7.306;2023-03-16T01:40:19;8.93;;;3.35;;
11187;SDS011;5650;52.700;7.306;2023-03-16T01:42:58;8.05;;;3.17;;
11187;SDS011;5650;52.700;7.306;2023-03-16T01:48:47;9.25;;;3.22;;
11187;SDS011;5650;52.700;7.306;2023-03-16T01:51:20;9.60;;;3.67;;
11187;SDS011;5650;52.700;7.306;2023-03-16T01:53:52;8.45;;;3.30;;
11187;SDS011;5650;52.700;7.306;2023-03-16T01:56:22;7.80;;;3.08;;
11187;SDS011;5650;52.700;7.306;2023-03-16T01:58:55;10.82;;;3.30;;
11187;SDS011;5650;52.700;7.306;2023-03-16T02:01:25;6.72;;;3.00;;
11187;SDS011;5650;52.700;7.306;2023-03-16T02:03:59;7.68;;;3.50;;
11187;SDS011;5650;52.700;7.306;2023-03-16T02:06:37;5.80;;;3.15;;
11187;SDS011;5650;52.700;7.306;2023-03-16T02:09:05;9.25;;;3.70;;
11187;SDS011;5650;52.700;7.306;2023-03-16T02:11:33;11.30;;;3.60;;
11187;SDS011;5650;52.700;7.306;2023-03-16T02:14:10;8.90;;;3.70;;
11187;SDS011;5650;52.700;7.306;2023-03-16T02:16:40;8.02;;;3.50;;
11187;SDS011;5650;52.700;7.306;2023-03-16T02:19:15;8.02;;;3.35;;
11187;SDS011;5650;52.700;7.306;2023-03-16T02:21:48;9.10;;;4.00;;
11187;SDS011;5650;52.700;7.306;2023-03-16T02:24:23;8.02;;;3.85;;
11187;SDS011;5650;52.700;7.306;2023-03-16T02:26:51;6.60;;;3.45;;
11187;SDS011;5650;52.700;7.306;2023-03-16T02:32:25;9.43;;;3.80;;
11187;SDS011;5650;52.700;7.306;2023-03-16T02:34:55;7.82;;;4.25;;
11187;SDS011;5650;52.700;7.306;2023-03-16T02:37:26;8.32;;;3.63;;
11187;SDS011;5650;52.700;7.306;2023-03-16T02:39:57;12.80;;;4.00;;
11187;SDS011;5650;52.700;7.306;2023-03-16T02:42:24;7.95;;;3.47;;
11187;SDS011;5650;52.700;7.306;2023-03-16T02:44:53;8.85;;;4.40;;
11187;SDS011;5650;52.700;7.306;2023-03-16T02:47:34;9.95;;;4.53;;
11187;SDS011;5650;52.700;7.306;2023-03-16T02:50:09;9.13;;;4.00;;
11187;SDS011;5650;52.700;7.306;2023-03-16T02:52:48;8.48;;;4.18;;
11187;SDS011;5650;52.700;7.306;2023-03-16T02:55:15;11.75;;;4.50;;
11187;SDS011;5650;52.700;7.306;2023-03-16T02:57:48;7.70;;;3.58;;
11187;SDS011;5650;52.700;7.306;2023-03-16T03:00:31;9.18;;;3.97;;
11187;SDS011;5650;52.700;7.306;2023-03-16T03:03:00;10.93;;;4.00;;
11187;SDS011;5650;52.700;7.306;2023-03-16T03:05:27;10.27;;;4.05;;
11187;SDS011;5650;52.700;7.306;2023-03-16T03:07:57;7.95;;;4.15;;
11187;SDS011;5650;52.700;7.306;2023-03-16T03:10:24;9.82;;;3.85;;
11187;SDS011;5650;52.700;7.306;2023-03-16T03:12:54;6.32;;;3.55;;
11187;SDS011;5650;52.700;7.306;2023-03-16T03:15:22;12.57;;;4.38;;
11187;SDS011;5650;52.700;7.306;2023-03-16T03:17:52;8.60;;;4.53;;
11187;SDS011;5650;52.700;7.306;2023-03-16T03:20:21;9.32;;;3.97;;
11187;SDS011;5650;52.700;7.306;2023-03-16T03:22:48;9.00;;;4.00;;
11187;SDS011;5650;52.700;7.306;2023-03-16T03:25:18;7.55;;;4.65;;
11187;SDS011;5650;52.700;7.306;2023-03-16T03:27:46;8.32;;;3.75;;
11187;SDS011;5650;52.700;7.306;2023-03-16T03:30:14;11.95;;;4.20;;
11187;SDS011;5650;52.700;7.306;2023-03-16T03:32:43;9.55;;;4.43;;
11187;SDS011;5650;52.700;7.306;2023-03-16T03:35:11;7.55;;;3.70;;
11187;SDS011;5650;52.700;7.306;2023-03-16T03:37:48;8.18;;;3.72;;
11187;SDS011;5650;52.700;7.306;2023-03-16T03:40:24;9.73;;;3.97;;
11187;SDS011;5650;52.700;7.306;2023-03-16T03:42:52;9.93;;;4.43;;
11187;SDS011;5650;52.700;7.306;2023-03-16T03:45:21;10.20;;;4.40;;
11187;SDS011;5650;52.700;7.306;2023-03-16T03:47:52;10.50;;;4.10;;
11187;SDS011;5650;52.700;7.306;2023-03-16T03:50:29;8.07;;;4.13;;
11187;SDS011;5650;52.700;7.306;2023-03-16T03:52:58;8.82;;;4.53;;
11187;SDS011;5650;52.700;7.306;2023-03-16T03:55:28;8.27;;;4.15;;
11187;SDS011;5650;52.700;7.306;2023-03-16T03:58:01;8.07;;;3.63;;
11187;SDS011;5650;52.700;7.306;2023-03-16T04:00:34;7.15;;;3.78;;
11187;SDS011;5650;52.700;7.306;2023-03-16T04:03:01;8.35;;;4.25;;
11187;SDS011;5650;52.700;7.306;2023-03-16T04:05:29;6.45;;;3.88;;
11187;SDS011;5650;52.700;7.306;2023-03-16T04:07:59;7.68;;;3.72;;
11187;SDS011;5650;52.700;7.306;2023-03-16T04:10:30;7.05;;;3.97;;
11187;SDS011;5650;52.700;7.306;2023-03-16T04:13:00;10.75;;;4.65;;
11187;SDS011;5650;52.700;7.306;2023-03-16T04:15:33;8.02;;;4.10;;
11187;SDS011;5650;52.700;7.306;2023-03-16T04:18:02;6.78;;;4.43;;
11187;SDS011;5650;52.700;7.306;2023-03-16T04:20:30;6.60;;;4.57;;
11187;SDS011;5650;52.700;7.306;2023-03-16T04:23:07;8.10;;;4.38;;
11187;SDS011;5650;52.700;7.306;2023-03-16T04:25:37;8.90;;;3.88;;
11187;SDS011;5650;52.700;7.306;2023-03-16T04:28:12;5.65;;;3.58;;
11187;SDS011;5650;52.700;7.306;2023-03-16T04:30:47;7.47;;;3.90;;
11187;SDS011;5650;52.700;7.306;2023-03-16T04:33:21;12.43;;;4.50;;
11187;SDS011;5650;52.700;7.306;2023-03-16T04:35:51;13.18;;;4.13;;
11187;SDS011;5650;52.700;7.306;2023-03-16T04:38:20;8.40;;;4.57;;
11187;SDS011;5650;52.700;7.306;2023-03-16T04:40:53;6.88;;;3.60;;
11187;SDS011;5650;52.700;7.306;2023-03-16T04:43:32;8.85;;;3.95;;
11187;SDS011;5650;52.700;7.306;2023-03-16T04:46:00;11.55;;;4.05;;
11187;SDS011;5650;52.700;7.306;2023-03-16T04:48:27;9.68;;;4.07;;
11187;SDS011;5650;52.700;7.306;2023-03-16T04:50:59;10.50;;;4.50;;
11187;SDS011;5650;52.700;7.306;2023-03-16T04:53:34;7.78;;;4.57;;
11187;SDS011;5650;52.700;7.306;2023-03-16T04:56:01;12.05;;;4.20;;
11187;SDS011;5650;52.700;7.306;2023-03-16T04:58:29;7.78;;;3.90;;
11187;SDS011;5650;52.700;7.306;2023-03-16T05:00:56;7.07;;;4.38;;
11187;SDS011;5650;52.700;7.306;2023-03-16T05:03:26;6.40;;;4.03;;
11187;SDS011;5650;52.700;7.306;2023-03-16T05:05:56;9.52;;;4.65;;
11187;SDS011;5650;52.700;7.306;2023-03-16T05:08:23;6.30;;;3.50;;
11187;SDS011;5650;52.700;7.306;2023-03-16T05:10:58;9.23;;;4.50;;
11187;SDS011;5650;52.700;7.306;2023-03-16T05:13:28;6.82;;;3.70;;
11187;SDS011;5650;52.700;7.306;2023-03-16T05:16:07;10.60;;;3.90;;
11187;SDS011;5650;52.700;7.306;2023-03-16T05:18:34;10.23;;;4.03;;
11187;SDS011;5650;52.700;7.306;2023-03-16T05:21:01;7.32;;;4.07;;
11187;SDS011;5650;52.700;7.306;2023-03-16T05:23:28;5.93;;;3.50;;
11187;SDS011;5650;52.700;7.306;2023-03-16T05:25:55;7.60;;;3.53;;
11187;SDS011;5650;52.700;7.306;2023-03-16T05:28:28;4.93;;;3.38;;
11187;SDS011;5650;52.700;7.306;2023-03-16T05:30:56;6.70;;;3.85;;
11187;SDS011;5650;52.700;7.306;2023-03-16T05:33:30;7.07;;;3.80;;
11187;SDS011;5650;52.700;7.306;2023-03-16T05:35:57;6.03;;;3.55;;
11187;SDS011;5650;52.700;7.306;2023-03-16T05:38:27;7.20;;;3.38;;
11187;SDS011;5650;52.700;7.306;2023-03-16T05:41:00;7.28;;;3.72;;
11187;SDS011;5650;52.700;7.306;2023-03-16T05:43:29;5.40;;;3.50;;
11187;SDS011;5650;52.700;7.306;2023-03-16T05:46:02;6.28;;;3.30;;
11187;SDS011;5650;52.700;7.306;2023-03-16T05:48:30;5.53;;;3.78;;
11187;SDS011;5650;52.700;7.306;2023-03-16T05:51:02;5.47;;;3.20;;
11187;SDS011;5650;52.700;7.306;2023-03-16T05:53:30;6.22;;;3.42;;
11187;SDS011;5650;52.700;7.306;2023-03-16T05:56:22;6.60;;;3.58;;
11187;SDS011;5650;52.700;7.306;2023-03-16T05:58:53;4.90;;;3.17;;
11187;SDS011;5650;52.700;7.306;2023-03-16T06:01:21;6.43;;;3.30;;
11187;SDS011;5650;52.700;7.306;2023-03-16T06:04:03;7.40;;;3.63;;
11187;SDS011;5650;52.700;7.306;2023-03-16T06:06:31;13.30;;;3.80;;
11187;SDS011;5650;52.700;7.306;2023-03-16T06:09:06;8.20;;;3.80;;
11187;SDS011;5650;52.700;7.306;2023-03-16T06:11:34;9.55;;;3.55;;
11187;SDS011;5650;52.700;7.306;2023-03-16T06:14:01;6.25;;;3.45;;
11187;SDS011;5650;52.700;7.306;2023-03-16T06:16:35;5.72;;;3.22;;
11187;SDS011;5650;52.700;7.306;2023-03-16T06:19:02;5.70;;;2.88;;
11187;SDS011;5650;52.700;7.306;2023-03-16T06:21:29;5.30;;;3.13;;
11187;SDS011;5650;52.700;7.306;2023-03-16T06:23:57;8.40;;;4.15;;
11187;SDS011;5650;52.700;7.306;2023-03-16T06:26:27;4.75;;;3.20;;
11187;SDS011;5650;52.700;7.306;2023-03-16T06:28:56;9.02;;;3.08;;
11187;SDS011;5650;52.700;7.306;2023-03-16T06:31:23;5.10;;;3.13;;
11187;SDS011;5650;52.700;7.306;2023-03-16T06:33:50;5.10;;;3.20;;
11187;SDS011;5650;52.700;7.306;2023-03-16T06:36:17;4.82;;;2.80;;
11187;SDS011;5650;52.700;7.306;2023-03-16T06:38:45;7.90;;;3.28;;
11187;SDS011;5650;52.700;7.306;2023-03-16T06:41:12;5.72;;;3.15;;
11187;SDS011;5650;52.700;7.306;2023-03-16T06:43:46;7.38;;;2.92;;
11187;SDS011;5650;52.700;7.306;2023-03-16T06:46:14;6.90;;;3.03;;
11187;SDS011;5650;52.700;7.306;2023-03-16T06:48:42;6.43;;;2.50;;
11187;SDS011;5650;52.700;7.306;2023-03-16T06:51:10;5.72;;;3.10;;
11187;SDS011;5650;52.700;7.306;2023-03-16T06:53:37;6.68;;;3.10;;
11187;SDS011;5650;52.700;7.306;2023-03-16T06:56:09;7.80;;;3.08;;
11187;SDS011;5650;52.700;7.306;2023-03-16T06:58:36;6.07;;;3.17;;
11187;SDS011;5650;52.700;7.306;2023-03-16T07:01:03;6.55;;;3.08;;
11187;SDS011;5650;52.700;7.306;2023-03-16T07:03:44;6.88;;;2.92;;
11187;SDS011;5650;52.700;7.306;2023-03-16T07:06:11;8.70;;;3.30;;
11187;SDS011;5650;52.700;7.306;2023-03-16T07:08:39;5.70;;;3.42;;
11187;SDS011;5650;52.700;7.306;2023-03-16T07:11:15;4.28;;;2.67;;
11187;SDS011;5650;52.700;7.306;2023-03-16T07:13:43;6.88;;;2.83;;
11187;SDS011;5650;52.700;7.306;2023-03-16T07:16:10;7.57;;;3.00;;
11187;SDS011;5650;52.700;7.306;2023-03-16T07:18:44;4.35;;;2.85;;
11187;SDS011;5650;52.700;7.306;2023-03-16T07:21:11;9.65;;;3.30;;
11187;SDS011;5650;52.700;7.306;2023-03-16T07:23:44;7.38;;;2.90;;
11187;SDS011;5650;52.700;7.306;2023-03-16T07:26:19;8.25;;;2.60;;
11187;SDS011;5650;52.700;7.306;2023-03-16T07:28:47;8.00;;;3.25;;
11187;SDS011;5650;52.700;7.306;2023-03-16T07:31:18;5.75;;;2.78;;
11187;SDS011;5650;52.700;7.306;2023-03-16T07:33:46;5.55;;;3.00;;
11187;SDS011;5650;52.700;7.306;2023-03-16T07:36:16;4.65;;;3.08;;
11187;SDS011;5650;52.700;7.306;2023-03-16T07:38:43;6.80;;;3.03;;
11187;SDS011;5650;52.700;7.306;2023-03-16T07:41:13;4.60;;;2.60;;
11187;SDS011;5650;52.700;7.306;2023-03-16T07:43:43;6.35;;;3.50;;
11187;SDS011;5650;52.700;7.306;2023-03-16T07:46:13;4.45;;;2.47;;
11187;SDS011;5650;52.700;7.306;2023-03-16T07:48:42;5.57;;;2.92;;
11187;SDS011;5650;52.700;7.306;2023-03-16T07:51:13;11.88;;;3.40;;
11187;SDS011;5650;52.700;7.306;2023-03-16T07:53:41;6.75;;;2.80;;
11187;SDS011;5650;52.700;7.306;2023-03-16T07:56:16;9.68;;;3.20;;
11187;SDS011;5650;52.700;7.306;2023-03-16T07:58:44;4.28;;;2.85;;
11187;SDS011;5650;52.700;7.306;2023-03-16T08:01:11;11.18;;;3.17;;
11187;SDS011;5650;52.700;7.306;2023-03-16T08:03:45;6.57;;;3.33;;
11187;SDS011;5650;52.700;7.306;2023-03-16T08:06:13;7.50;;;3.70;;
11187;SDS011;5650;52.700;7.306;2023-03-16T08:08:40;6.30;;;4.05;;
11187;SDS011;5650;52.700;7.306;2023-03-16T08:11:16;7.20;;;3.63;;
11187;SDS011;5650;52.700;7.306;2023-03-16T08:13:47;7.00;;;3.50;;
11187;SDS011;5650;52.700;7.306;2023-03-16T08:16:20;5.60;;;3.00;;
11187;SDS011;5650;52.700;7.306;2023-03-16T08:18:54;5.47;;;3.45;;
11187;SDS011;5650;52.700;7.306;2023-03-16T08:21:22;6.22;;;3.05;;
11187;SDS011;5650;52.700;7.306;2023-03-16T08:23:52;5.20;;;3.35;;
11187;SDS011;5650;52.700;7.306;2023-03-16T08:26:22;6.28;;;3.40;;
11187;SDS011;5650;52.700;7.306;2023-03-16T08:28:51;7.65;;;3.05;;
11187;SDS011;5650;52.700;7.306;2023-03-16T08:31:25;7.68;;;3.60;;
11187;SDS011;5650;52.700;7.306;2023-03-16T08:33:55;5.68;;;3.78;;
11187;SDS011;5650;52.700;7.306;2023-03-16T08:36:23;5.55;;;3.10;;
11187;SDS011;5650;52.700;7.306;2023-03-16T08:38:55;7.20;;;3.58;;
11187;SDS011;5650;52.700;7.306;2023-03-16T08:41:22;6.63;;;3.70;;
11187;SDS011;5650;52.700;7.306;2023-03-16T08:43:49;5.63;;;3.53;;
11187;SDS011;5650;52.700;7.306;2023-03-16T08:46:17;5.53;;;3.83;;
11187;SDS011;5650;52.700;7.306;2023-03-16T08:51:23;6.20;;;3.67;;
11187;SDS011;5650;52.700;7.306;2023-03-16T08:53:51;6.65;;;3.65;;
11187;SDS011;5650;52.700;7.306;2023-03-16T08:56:18;6.47;;;3.75;;
11187;SDS011;5650;52.700;7.306;2023-03-16T08:58:48;7.65;;;3.95;;
11187;SDS011;5650;52.700;7.306;2023-03-16T09:01:16;9.02;;;4.20;;
11187;SDS011;5650;52.700;7.306;2023-03-16T09:03:44;6.32;;;3.90;;
11187;SDS011;5650;52.700;7.306;2023-03-16T09:06:12;5.75;;;3.72;;
11187;SDS011;5650;52.700;7.306;2023-03-16T09:08:42;5.93;;;3.95;;
11187;SDS011;5650;52.700;7.306;2023-03-16T09:11:11;8.05;;;4.22;;
11187;SDS011;5650;52.700;7.306;2023-03-16T09:13:48;6.55;;;3.90;;
11187;SDS011;5650;52.700;7.306;2023-03-16T09:16:18;9.00;;;3.75;;
11187;SDS011;5650;52.700;7.306;2023-03-16T09:18:49;8.18;;;3.92;;
11187;SDS011;5650;52.700;7.306;2023-03-16T09:21:17;10.65;;;4.57;;
11187;SDS011;5650;52.700;7.306;2023-03-16T09:23:49;11.05;;;7.00;;
11187;SDS011;5650;52.700;7.306;2023-03-16T09:26:19;10.77;;;4.88;;
11187;SDS011;5650;52.700;7.306;2023-03-16T09:28:48;5.97;;;4.03;;
11187;SDS011;5650;52.700;7.306;2023-03-16T09:31:16;10.25;;;4.35;;
11187;SDS011;5650;52.700;7.306;2023-03-16T09:33:44;6.25;;;4.35;;
11187;SDS011;5650;52.700;7.306;2023-03-16T09:36:15;10.50;;;4.75;;
11187;SDS011;5650;52.700;7.306;2023-03-16T09:38:42;9.60;;;4.47;;
11187;SDS011;5650;52.700;7.306;2023-03-16T09:41:18;9.13;;;4.85;;
11187;SDS011;5650;52.700;7.306;2023-03-16T09:44:00;10.15;;;5.20;;
11187;SDS011;5650;52.700;7.306;2023-03-16T09:46:35;10.57;;;5.43;;
11187;SDS011;5650;52.700;7.306;2023-03-16T09:49:09;8.75;;;5.75;;
11187;SDS011;5650;52.700;7.306;2023-03-16T09:51:39;8.20;;;5.45;;
11187;SDS011;5650;52.700;7.306;2023-03-16T09:54:19;8.27;;;4.63;;
11187;SDS011;5650;52.700;7.306;2023-03-16T09:56:53;8.25;;;5.30;;
11187;SDS011;5650;52.700;7.306;2023-03-16T09:59:38;7.32;;;4.90;;
11187;SDS011;5650;52.700;7.306;2023-03-16T10:05:24;7.60;;;4.20;;
11187;SDS011;5650;52.700;7.306;2023-03-16T10:07:56;9.00;;;3.67;;
11187;SDS011;5650;52.700;7.306;2023-03-16T10:10:36;5.75;;;4.13;;
11187;SDS011;5650;52.700;7.306;2023-03-16T10:13:26;11.05;;;4.35;;
11187;SDS011;5650;52.700;7.306;2023-03-16T10:16:10;9.63;;;3.83;;
11187;SDS011;5650;52.700;7.306;2023-03-16T10:18:58;8.38;;;4.70;;
11187;SDS011;5650;52.700;7.306;2023-03-16T10:21:29;9.98;;;4.55;;
11187;SDS011;5650;52.700;7.306;2023-03-16T10:24:01;7.28;;;4.70;;
11187;SDS011;5650;52.700;7.306;2023-03-16T10:26:32;6.25;;;4.47;;
11187;SDS011;5650;52.700;7.306;2023-03-16T10:29:09;6.25;;;4.40;;
11187;SDS011;5650;52.700;7.306;2023-03-16T10:31:39;8.05;;;4.40;;
11187;SDS011;5650;52.700;7.306;2023-03-16T10:34:07;6.63;;;4.72;;
11187;SDS011;5650;52.700;7.306;2023-03-16T10:36:38;7.57;;;4.10;;
11187;SDS011;5650;52.700;7.306;2023-03-16T10:39:07;7.72;;;4.40;;
11187;SDS011;5650;52.700;7.306;2023-03-16T10:41:38;6.40;;;4.05;;
11187;SDS011;5650;52.700;7.306;2023-03-16T10:44:12;7.07;;;4.50;;
11187;SDS011;5650;52.700;7.306;2023-03-16T10:46:41;10.13;;;4.75;;
11187;SDS011;5650;52.700;7.306;2023-03-16T10:49:19;6.20;;;4.43;;
11187;SDS011;5650;52.700;7.306;2023-03-16T10:51:52;6.65;;;3.83;;
11187;SDS011;5650;52.700;7.306;2023-03-16T10:54:26;6.65;;;4.05;;
11187;SDS011;5650;52.700;7.306;2023-03-16T10:56:55;6.70;;;4.43;;
11187;SDS011;5650;52.700;7.306;2023-03-16T10:59:34;9.43;;;4.45;;
11187;SDS011;5650;52.700;7.306;2023-03-16T11:02:13;9.80;;;4.93;;
11187;SDS011;5650;52.700;7.306;2023-03-16T11:04:42;6.97;;;4.45;;
11187;SDS011;5650;52.700;7.306;2023-03-16T11:07:16;7.35;;;4.60;;
11187;SDS011;5650;52.700;7.306;2023-03-16T11:09:47;12.32;;;6.75;;
11187;SDS011;5650;52.700;7.306;2023-03-16T11:12:21;10.80;;;5.97;;
11187;SDS011;5650;52.700;7.306;2023-03-16T11:15:08;7.95;;;5.18;;
11187;SDS011;5650;52.700;7.306;2023-03-16T11:17:40;7.05;;;4.50;;
11187;SDS011;5650;52.700;7.306;2023-03-16T11:20:26;7.25;;;4.78;;
11187;SDS011;5650;52.700;7.306;2023-03-16T11:22:58;5.90;;;4.30;;
11187;SDS011;5650;52.700;7.306;2023-03-16T11:25:27;5.82;;;4.63;;
11187;SDS011;5650;52.700;7.306;2023-03-16T11:28:02;6.05;;;4.40;;
11187;SDS011;5650;52.700;7.306;2023-03-16T11:30:39;5.57;;;4.10;;
11187;SDS011;5650;52.700;7.306;2023-03-16T11:33:18;6.95;;;4.60;;
11187;SDS011;5650;52.700;7.306;2023-03-16T11:35:56;7.80;;;5.38;;
11187;SDS011;5650;52.700;7.306;2023-03-16T11:38:42;7.50;;;4.80;;
11187;SDS011;5650;52.700;7.306;2023-03-16T11:41:22;5.15;;;4.18;;
11187;SDS011;5650;52.700;7.306;2023-03-16T11:44:05;9.25;;;4.20;;
11187;SDS011;5650;52.700;7.306;2023-03-16T11:46:40;5.28;;;3.97;;
11187;SDS011;5650;52.700;7.306;2023-03-16T11:49:23;4.95;;;4.07;;
11187;SDS011;5650;52.700;7.306;2023-03-16T11:52:17;8.15;;;4.15;;
11187;SDS011;5650;52.700;7.306;2023-03-16T11:55:09;5.60;;;4.35;;
11187;SDS011;5650;52.700;7.306;2023-03-16T11:58:01;6.40;;;4.10;;
11187;SDS011;5650;52.700;7.306;2023-03-16T12:00:39;5.68;;;3.80;;
11187;SDS011;5650;52.700;7.306;2023-03-16T12:03:25;7.38;;;4.05;;
11187;SDS011;5650;52.700;7.306;2023-03-16T12:06:03;6.57;;;4.20;;
11187;SDS011;5650;52.700;7.306;2023-03-16T12:12:12;6.95;;;3.75;;
11187;SDS011;5650;52.700;7.306;2023-03-16T12:14:49;4.93;;;3.55;;
11187;SDS011;5650;52.700;7.306;2023-03-16T12:17:29;4.53;;;3.28;;
11187;SDS011;5650;52.700;7.306;2023-03-16T12:20:01;4.82;;;3.30;;
11187;SDS011;5650;52.700;7.306;2023-03-16T12:22:40;5.57;;;3.38;;
11187;SDS011;5650;52.700;7.306;2023-03-16T12:25:12;7.88;;;3.78;;
11187;SDS011;5650;52.700;7.306;2023-03-16T12:27:53;7.28;;;3.63;;
11187;SDS011;5650;52.700;7.306;2023-03-16T12:30:25;6.05;;;3.30;;
11187;SDS011;5650;52.700;7.306;2023-03-16T12:33:05;4.50;;;2.72;;
11187;SDS011;5650;52.700;7.306;2023-03-16T12:35:43;4.70;;;3.05;;
11187;SDS011;5650;52.700;7.306;2023-03-16T12:38:32;5.25;;;3.05;;
11187;SDS011;5650;52.700;7.306;2023-03-16T12:41:11;3.63;;;2.83;;
11187;SDS011;5650;52.700;7.306;2023-03-16T12:43:48;6.07;;;3.53;;
11187;SDS011;5650;52.700;7.306;2023-03-16T12:46:34;4.75;;;3.10;;
11187;SDS011;5650;52.700;7.306;2023-03-16T12:49:22;4.50;;;3.03;;
11187;SDS011;5650;52.700;7.306;2023-03-16T12:51:59;6.25;;;3.17;;
11187;SDS011;5650;52.700;7.306;2023-03-16T12:54:27;5.25;;;3.10;;
11187;SDS011;5650;52.700;7.306;2023-03-16T12:57:01;6.72;;;3.53;;
11187;SDS011;5650;52.700;7.306;2023-03-16T12:59:35;7.00;;;3.22;;
11187;SDS011;5650;52.700;7.306;2023-03-16T13:02:20;7.95;;;2.75;;
11187;SDS011;5650;52.700;7.306;2023-03-16T13:04:54;7.10;;;3.38;;
11187;SDS011;5650;52.700;7.306;2023-03-16T13:07:28;8.65;;;2.80;;
11187;SDS011;5650;52.700;7.306;2023-03-16T13:09:57;5.38;;;2.42;;
11187;SDS011;5650;52.700;7.306;2023-03-16T13:12:29;3.47;;;2.15;;
11187;SDS011;5650;52.700;7.306;2023-03-16T13:18:19;4.85;;;2.28;;
11187;SDS011;5650;52.700;7.306;2023-03-16T13:20:49;7.47;;;2.60;;
11187;SDS011;5650;52.700;7.306;2023-03-16T13:23:23;7.88;;;3.55;;
11187;SDS011;5650;52.700;7.306;2023-03-16T13:26:12;5.75;;;2.50;;
11187;SDS011;5650;52.700;7.306;2023-03-16T13:28:41;5.63;;;3.10;;
11187;SDS011;5650;52.700;7.306;2023-03-16T13:31:21;5.78;;;3.10;;
11187;SDS011;5650;52.700;7.306;2023-03-16T13:33:54;4.43;;;2.80;;
11187;SDS011;5650;52.700;7.306;2023-03-16T13:36:26;7.00;;;3.13;;
11187;SDS011;5650;52.700;7.306;2023-03-16T13:38:56;4.82;;;2.67;;
11187;SDS011;5650;52.700;7.306;2023-03-16T13:41:33;3.70;;;2.58;;
11187;SDS011;5650;52.700;7.306;2023-03-16T13:44:00;6.45;;;2.60;;
11187;SDS011;5650;52.700;7.306;2023-03-16T13:46:30;3.55;;;2.28;;
11187;SDS011;5650;52.700;7.306;2023-03-16T13:48:57;6.60;;;2.60;;
11187;SDS011;5650;52.700;7.306;2023-03-16T13:51:25;3.35;;;2.30;;
11187;SDS011;5650;52.700;7.306;2023-03-16T13:54:17;5.30;;;2.40;;
11187;SDS011;5650;52.700;7.306;2023-03-16T13:56:48;9.60;;;2.67;;
11187;SDS011;5650;52.700;7.306;2023-03-16T13:59:16;2.65;;;2.25;;
11187;SDS011;5650;52.700;7.306;2023-03-16T14:01:44;6.50;;;2.40;;
11187;SDS011;5650;52.700;7.306;2023-03-16T14:04:13;3.97;;;2.20;;
11187;SDS011;5650;52.700;7.306;2023-03-16T14:06:53;4.55;;;2.45;;
11187;SDS011;5650;52.700;7.306;2023-03-16T14:09:27;3.63;;;2.53;;
11187;SDS011;5650;52.700;7.306;2023-03-16T14:11:56;4.57;;;2.60;;
11187;SDS011;5650;52.700;7.306;2023-03-16T14:14:26;3.35;;;2.05;;
11187;SDS011;5650;52.700;7.306;2023-03-16T14:17:01;4.57;;;2.20;;
11187;SDS011;5650;52.700;7.306;2023-03-16T14:19:35;6.47;;;2.30;;
11187;SDS011;5650;52.700;7.306;2023-03-16T14:22:14;6.63;;;2.40;;
11187;SDS011;5650;52.700;7.306;2023-03-16T14:24:50;6.22;;;2.40;;
11187;SDS011;5650;52.700;7.306;2023-03-16T14:27:22;2.83;;;2.08;;
11187;SDS011;5650;52.700;7.306;2023-03-16T14:29:58;4.88;;;2.72;;
11187;SDS011;5650;52.700;7.306;2023-03-16T14:32:28;5.72;;;2.95;;
11187;SDS011;5650;52.700;7.306;2023-03-16T14:35:10;6.28;;;2.63;;
11187;SDS011;5650;52.700;7.306;2023-03-16T14:37:40;4.35;;;2.83;;
11187;SDS011;5650;52.700;7.306;2023-03-16T14:40:19;5.05;;;2.95;;
11187;SDS011;5650;52.700;7.306;2023-03-16T14:42:49;5.68;;;3.28;;
11187;SDS011;5650;52.700;7.306;2023-03-16T14:45:17;8.90;;;3.65;;
11187;SDS011;5650;52.700;7.306;2023-03-16T14:47:46;6.35;;;3.33;;
11187;SDS011;5650;52.700;7.306;2023-03-16T14:50:20;10.20;;;4.85;;
11187;SDS011;5650;52.700;7.306;2023-03-16T14:52:49;10.65;;;6.07;;
11187;SDS011;5650;52.700;7.306;2023-03-16T14:55:19;4.10;;;2.67;;
11187;SDS011;5650;52.700;7.306;2023-03-16T14:57:46;5.07;;;3.03;;
11187;SDS011;5650;52.700;7.306;2023-03-16T15:00:16;9.38;;;5.47;;
11187;SDS011;5650;52.700;7.306;2023-03-16T15:02:53;10.00;;;5.70;;
11187;SDS011;5650;52.700;7.306;2023-03-16T15:05:27;4.68;;;2.97;;
11187;SDS011;5650;52.700;7.306;2023-03-16T15:07:58;5.20;;;2.75;;
11187;SDS011;5650;52.700;7.306;2023-03-16T15:10:41;3.42;;;2.42;;
11187;SDS011;5650;52.700;7.306;2023-03-16T15:13:12;5.75;;;2.47;;
11187;SDS011;5650;52.700;7.306;2023-03-16T15:15:58;2.70;;;2.30;;
11187;SDS011;5650;52.700;7.306;2023-03-16T15:18:29;3.20;;;2.33;;
11187;SDS011;5650;52.700;7.306;2023-03-16T15:20:57;4.10;;;2.30;;
11187;SDS011;5650;52.700;7.306;2023-03-16T15:23:27;4.82;;;2.33;;
11187;SDS011;5650;52.700;7.306;2023-03-16T15:26:00;4.68;;;2.53;;
11187;SDS011;5650;52.700;7.306;2023-03-16T15:28:29;5.68;;;3.75;;
11187;SDS011;5650;52.700;7.306;2023-03-16T15:30:57;3.80;;;2.30;;
11187;SDS011;5650;52.700;7.306;2023-03-16T15:33:26;3.17;;;2.10;;
11187;SDS011;5650;52.700;7.306;2023-03-16T15:36:00;3.53;;;2.08;;
11187;SDS011;5650;52.700;7.306;2023-03-16T15:38:37;6.68;;;3.03;;
11187;SDS011;5650;52.700;7.306;2023-03-16T15:41:08;3.55;;;2.58;;
11187;SDS011;5650;52.700;7.306;2023-03-16T15:43:36;4.03;;;2.70;;
11187;SDS011;5650;52.700;7.306;2023-03-16T15:46:08;5.28;;;2.67;;
11187;SDS011;5650;52.700;7.306;2023-03-16T15:48:36;6.22;;;2.78;;
11187;SDS011;5650;52.700;7.306;2023-03-16T15:51:05;3.95;;;2.50;;